sensor_id;sensor_type;location;lat;lon;timestamp;pressure;altitude;pressure_sealevel;temperature;humidity
10638;BME280;47007;49.252;8.904;2022-09-16T00:00:30;99248.16;;;14.76;100.00
10638;BME280;47007;49.252;8.904;2022-09-16T00:02:57;99269.19;;;14.84;100.00
10638;BME280;47007;49.252;8.904;2022-09-16T00:05:24;99256.81;;;14.90;100.00
10638;BME280;47007;49.252;8.904;2022-09-16T00:07:52;99254.75;;;14.92;100.00
10638;BME280;47007;49.252;8.904;2022-09-16T00:10:19;99241.84;;;14.89;100.00
10638;BME280;47007;49.252;8.904;2022-09-16T00:12:48;99233.34;;;14.80;100.00
10638;BME280;47007;49.252;8.904;2022-09-16T00:15:15;99257.78;;;14.95;100.00
10638;BME280;47007;49.252;8.904;2022-09-16T00:17:42;99229.78;;;14.86;100.00
10638;BME280;47007;49.252;8.904;2022-09-16T00:20:09;99254.31;;;14.95;100.00
10638;BME280;47007;49.252;8.904;2022-09-16T00:22:36;99251.25;;;14.91;100.00
10638;BME280;47007;49.252;8.904;2022-09-16T00:25:03;99255.34;;;14.94;100.00
10638;BME280;47007;49.252;8.904;2022-09-16T00:27:32;99265.19;;;14.93;100.00
10638;BME280;47007;49.252;8.904;2022-09-16T00:29:58;99263.19;;;14.89;100.00
10638;BME280;47007;49.252;8.904;2022-09-16T00:32:25;99262.47;;;14.82;100.00
10638;BME280;47007;49.252;8.904;2022-09-16T00:34:52;99262.88;;;14.97;100.00
10638;BME280;47007;49.252;8.904;2022-09-16T00:37:19;99269.44;;;15.13;100.00
10638;BME280;47007;49.252;8.904;2022-09-16T00:39:48;99250.19;;;15.10;100.00
10638;BME280;47007;49.252;8.904;2022-09-16T00:42:17;99253.69;;;15.23;100.00
10638;BME280;47007;49.252;8.904;2022-09-16T00:47:29;99265.34;;;15.28;100.00
10638;BME280;47007;49.252;8.904;2022-09-16T00:50:03;99270.25;;;15.31;100.00
10638;BME280;47007;49.252;8.904;2022-09-16T00:52:31;99267.19;;;15.28;100.00
10638;BME280;47007;49.252;8.904;2022-09-16T00:55:00;99245.25;;;15.26;100.00
10638;BME280;47007;49.252;8.904;2022-09-16T00:57:28;99262.47;;;15.41;100.00
10638;BME280;47007;49.252;8.904;2022-09-16T00:59:55;99265.75;;;15.43;100.00
10638;BME280;47007;49.252;8.904;2022-09-16T01:02:23;99261.34;;;15.49;100.00
10638;BME280;47007;49.252;8.904;2022-09-16T01:04:58;99264.81;;;15.50;100.00
10638;BME280;47007;49.252;8.904;2022-09-16T01:10:02;99261.69;;;15.53;100.00
10638;BME280;47007;49.252;8.904;2022-09-16T01:12:30;99279.50;;;15.59;100.00
10638;BME280;47007;49.252;8.904;2022-09-16T01:14:59;99255.47;;;15.59;100.00
10638;BME280;47007;49.252;8.904;2022-09-16T01:23:40;99270.34;;;15.55;100.00
10638;BME280;47007;49.252;8.904;2022-09-16T01:35:17;99269.19;;;15.32;100.00
10638;BME280;47007;49.252;8.904;2022-09-16T01:40:56;99268.00;;;15.28;100.00
10638;BME280;47007;49.252;8.904;2022-09-16T01:48:43;99263.50;;;15.29;100.00
10638;BME280;47007;49.252;8.904;2022-09-16T01:51:30;99263.88;;;15.14;100.00
10638;BME280;47007;49.252;8.904;2022-09-16T01:54:11;99260.03;;;15.10;100.00
10638;BME280;47007;49.252;8.904;2022-09-16T01:56:44;99258.59;;;14.96;100.00
10638;BME280;47007;49.252;8.904;2022-09-16T01:59:17;99250.50;;;14.84;100.00
10638;BME280;47007;49.252;8.904;2022-09-16T02:01:53;99259.28;;;14.73;100.00
10638;BME280;47007;49.252;8.904;2022-09-16T02:04:37;99253.22;;;14.66;100.00
10638;BME280;47007;49.252;8.904;2022-09-16T02:07:09;99258.25;;;14.56;100.00
10638;BME280;47007;49.252;8.904;2022-09-16T02:09:40;99223.91;;;14.23;100.00
10638;BME280;47007;49.252;8.904;2022-09-16T02:12:12;99260.78;;;14.51;100.00
10638;BME280;47007;49.252;8.904;2022-09-16T02:14:42;99243.97;;;14.50;100.00
10638;BME280;47007;49.252;8.904;2022-09-16T02:17:13;99242.25;;;14.56;100.00
10638;BME280;47007;49.252;8.904;2022-09-16T02:19:42;99242.69;;;14.53;100.00
10638;BME280;47007;49.252;8.904;2022-09-16T02:22:13;99222.63;;;14.50;100.00
10638;BME280;47007;49.252;8.904;2022-09-16T02:24:43;99198.13;;;14.42;100.00
10638;BME280;47007;49.252;8.904;2022-09-16T02:27:18;99202.25;;;14.56;100.00
10638;BME280;47007;49.252;8.904;2022-09-16T02:29:53;99212.25;;;14.60;100.00
10638;BME280;47007;49.252;8.904;2022-09-16T02:32:23;99230.69;;;14.62;100.00
10638;BME280;47007;49.252;8.904;2022-09-16T02:34:52;99228.88;;;14.44;100.00
10638;BME280;47007;49.252;8.904;2022-09-16T02:37:33;99244.66;;;14.39;100.00
10638;BME280;47007;49.252;8.904;2022-09-16T02:40:09;99263.63;;;14.31;100.00
10638;BME280;47007;49.252;8.904;2022-09-16T02:42:37;99238.88;;;14.24;100.00
10638;BME280;47007;49.252;8.904;2022-09-16T02:45:04;99255.41;;;14.32;100.00
10638;BME280;47007;49.252;8.904;2022-09-16T02:50:16;99254.66;;;14.25;100.00
10638;BME280;47007;49.252;8.904;2022-09-16T02:55:53;99224.59;;;14.18;100.00
10638;BME280;47007;49.252;8.904;2022-09-16T02:58:22;99262.31;;;14.40;100.00
10638;BME280;47007;49.252;8.904;2022-09-16T03:00:51;99267.00;;;14.45;100.00
10638;BME280;47007;49.252;8.904;2022-09-16T03:03:19;99267.75;;;14.52;100.00
10638;BME280;47007;49.252;8.904;2022-09-16T03:08:32;99268.03;;;14.62;100.00
10638;BME280;47007;49.252;8.904;2022-09-16T03:17:06;99254.75;;;14.73;100.00
10638;BME280;47007;49.252;8.904;2022-09-16T03:22:17;99259.94;;;14.87;100.00
10638;BME280;47007;49.252;8.904;2022-09-16T03:24:58;99245.25;;;14.96;100.00
10638;BME280;47007;49.252;8.904;2022-09-16T03:27:39;99228.88;;;14.92;100.00
10638;BME280;47007;49.252;8.904;2022-09-16T03:30:09;99255.16;;;15.07;100.00
10638;BME280;47007;49.252;8.904;2022-09-16T03:32:39;99254.44;;;15.00;100.00
10638;BME280;47007;49.252;8.904;2022-09-16T03:37:56;99220.50;;;14.89;100.00
10638;BME280;47007;49.252;8.904;2022-09-16T03:40:25;99254.00;;;15.03;100.00
10638;BME280;47007;49.252;8.904;2022-09-16T03:42:56;99223.50;;;14.81;100.00
10638;BME280;47007;49.252;8.904;2022-09-16T03:45:23;99148.41;;;14.47;100.00
10638;BME280;47007;49.252;8.904;2022-09-16T03:47:51;99169.44;;;14.55;100.00
10638;BME280;47007;49.252;8.904;2022-09-16T03:50:19;99229.75;;;15.04;100.00
10638;BME280;47007;49.252;8.904;2022-09-16T03:52:46;99197.03;;;14.79;100.00
10638;BME280;47007;49.252;8.904;2022-09-16T03:55:26;99209.69;;;14.84;100.00
10638;BME280;47007;49.252;8.904;2022-09-16T03:57:53;99231.44;;;14.99;100.00
10638;BME280;47007;49.252;8.904;2022-09-16T04:00:20;99207.78;;;14.72;100.00
10638;BME280;47007;49.252;8.904;2022-09-16T04:02:48;99237.56;;;14.88;100.00
10638;BME280;47007;49.252;8.904;2022-09-16T04:05:15;99228.06;;;14.73;100.00
10638;BME280;47007;49.252;8.904;2022-09-16T04:07:42;99224.66;;;14.85;100.00
10638;BME280;47007;49.252;8.904;2022-09-16T04:10:08;99245.94;;;14.91;100.00
10638;BME280;47007;49.252;8.904;2022-09-16T04:12:37;99231.50;;;14.81;100.00
10638;BME280;47007;49.252;8.904;2022-09-16T04:15:04;99146.31;;;14.49;100.00
10638;BME280;47007;49.252;8.904;2022-09-16T04:17:32;99192.03;;;14.71;100.00
10638;BME280;47007;49.252;8.904;2022-09-16T04:19:59;99167.88;;;14.66;100.00
10638;BME280;47007;49.252;8.904;2022-09-16T04:22:30;99236.13;;;15.03;100.00
10638;BME280;47007;49.252;8.904;2022-09-16T04:24:57;99194.38;;;14.61;100.00
10638;BME280;47007;49.252;8.904;2022-09-16T04:27:24;99234.75;;;14.83;100.00
10638;BME280;47007;49.252;8.904;2022-09-16T04:29:51;99231.63;;;14.86;100.00
10638;BME280;47007;49.252;8.904;2022-09-16T04:32:17;99226.59;;;14.96;100.00
10638;BME280;47007;49.252;8.904;2022-09-16T04:34:44;99221.00;;;14.97;100.00
10638;BME280;47007;49.252;8.904;2022-09-16T04:37:11;99239.97;;;15.07;100.00
10638;BME280;47007;49.252;8.904;2022-09-16T04:39:37;99235.78;;;15.12;100.00
10638;BME280;47007;49.252;8.904;2022-09-16T04:42:04;99228.81;;;15.10;100.00
10638;BME280;47007;49.252;8.904;2022-09-16T04:44:32;99225.34;;;15.10;100.00
10638;BME280;47007;49.252;8.904;2022-09-16T04:46:58;99241.94;;;15.12;100.00
10638;BME280;47007;49.252;8.904;2022-09-16T04:49:29;99227.88;;;15.05;100.00
10638;BME280;47007;49.252;8.904;2022-09-16T04:51:55;99211.59;;;14.95;100.00
10638;BME280;47007;49.252;8.904;2022-09-16T04:54:22;99217.50;;;14.97;100.00
10638;BME280;47007;49.252;8.904;2022-09-16T04:56:49;99181.41;;;14.64;100.00
10638;BME280;47007;49.252;8.904;2022-09-16T04:59:16;99228.72;;;14.87;100.00
10638;BME280;47007;49.252;8.904;2022-09-16T05:01:42;99238.00;;;14.85;100.00
10638;BME280;47007;49.252;8.904;2022-09-16T05:04:09;99229.13;;;14.72;100.00
10638;BME280;47007;49.252;8.904;2022-09-16T05:06:39;99239.78;;;14.72;100.00
10638;BME280;47007;49.252;8.904;2022-09-16T05:09:08;99232.97;;;14.77;100.00
10638;BME280;47007;49.252;8.904;2022-09-16T05:11:37;99228.34;;;15.02;100.00
10638;BME280;47007;49.252;8.904;2022-09-16T05:14:11;99238.25;;;15.13;100.00
10638;BME280;47007;49.252;8.904;2022-09-16T05:16:38;99235.94;;;15.17;100.00
10638;BME280;47007;49.252;8.904;2022-09-16T05:19:05;99231.00;;;15.32;100.00
10638;BME280;47007;49.252;8.904;2022-09-16T05:21:34;99230.31;;;15.48;100.00
10638;BME280;47007;49.252;8.904;2022-09-16T05:24:03;99228.44;;;15.67;100.00
10638;BME280;47007;49.252;8.904;2022-09-16T05:26:31;99229.47;;;15.77;100.00
10638;BME280;47007;49.252;8.904;2022-09-16T05:29:00;99224.94;;;15.78;100.00
10638;BME280;47007;49.252;8.904;2022-09-16T05:31:29;99224.81;;;15.85;100.00
10638;BME280;47007;49.252;8.904;2022-09-16T05:34:04;99219.59;;;15.78;100.00
10638;BME280;47007;49.252;8.904;2022-09-16T05:36:34;99170.75;;;15.48;100.00
10638;BME280;47007;49.252;8.904;2022-09-16T05:39:02;99230.28;;;15.78;100.00
10638;BME280;47007;49.252;8.904;2022-09-16T05:41:52;99227.97;;;15.70;100.00
10638;BME280;47007;49.252;8.904;2022-09-16T05:44:19;99229.97;;;15.33;100.00
10638;BME280;47007;49.252;8.904;2022-09-16T05:46:46;99237.78;;;15.16;100.00
10638;BME280;47007;49.252;8.904;2022-09-16T05:49:13;99227.28;;;15.03;100.00
10638;BME280;47007;49.252;8.904;2022-09-16T05:51:39;99221.09;;;14.91;100.00
10638;BME280;47007;49.252;8.904;2022-09-16T05:54:09;99221.13;;;14.72;100.00
10638;BME280;47007;49.252;8.904;2022-09-16T05:56:36;99228.22;;;14.79;100.00
10638;BME280;47007;49.252;8.904;2022-09-16T05:59:03;99230.31;;;14.77;100.00
10638;BME280;47007;49.252;8.904;2022-09-16T06:01:33;99235.66;;;14.77;100.00
10638;BME280;47007;49.252;8.904;2022-09-16T06:04:02;99209.22;;;14.57;100.00
10638;BME280;47007;49.252;8.904;2022-09-16T06:06:34;99241.88;;;14.70;100.00
10638;BME280;47007;49.252;8.904;2022-09-16T06:11:44;99262.97;;;14.72;100.00
10638;BME280;47007;49.252;8.904;2022-09-16T06:14:11;99245.00;;;14.67;100.00
10638;BME280;47007;49.252;8.904;2022-09-16T06:16:39;99249.06;;;14.70;100.00
10638;BME280;47007;49.252;8.904;2022-09-16T06:19:09;99250.50;;;14.84;100.00
10638;BME280;47007;49.252;8.904;2022-09-16T06:21:58;99174.09;;;14.60;100.00
10638;BME280;47007;49.252;8.904;2022-09-16T06:24:25;99232.69;;;15.15;100.00
10638;BME280;47007;49.252;8.904;2022-09-16T06:26:52;99238.41;;;15.30;100.00
10638;BME280;47007;49.252;8.904;2022-09-16T06:29:19;99246.91;;;15.38;100.00
10638;BME280;47007;49.252;8.904;2022-09-16T06:31:45;99241.00;;;15.48;100.00
10638;BME280;47007;49.252;8.904;2022-09-16T06:34:16;99232.06;;;15.42;100.00
10638;BME280;47007;49.252;8.904;2022-09-16T06:36:44;99241.66;;;15.62;100.00
10638;BME280;47007;49.252;8.904;2022-09-16T06:39:12;99247.47;;;15.70;100.00
10638;BME280;47007;49.252;8.904;2022-09-16T06:41:39;99193.72;;;15.37;100.00
10638;BME280;47007;49.252;8.904;2022-09-16T06:44:09;99230.44;;;15.41;100.00
10638;BME280;47007;49.252;8.904;2022-09-16T06:46:36;99237.41;;;15.42;100.00
10638;BME280;47007;49.252;8.904;2022-09-16T06:49:03;99243.88;;;15.35;100.00
10638;BME280;47007;49.252;8.904;2022-09-16T06:51:32;99235.97;;;15.28;100.00
10638;BME280;47007;49.252;8.904;2022-09-16T06:54:04;99239.19;;;15.19;100.00
10638;BME280;47007;49.252;8.904;2022-09-16T06:56:32;99240.25;;;15.18;100.00
10638;BME280;47007;49.252;8.904;2022-09-16T06:59:01;99233.81;;;15.07;100.00
10638;BME280;47007;49.252;8.904;2022-09-16T07:01:29;99224.03;;;15.01;100.00
10638;BME280;47007;49.252;8.904;2022-09-16T07:03:57;99238.63;;;14.98;100.00
10638;BME280;47007;49.252;8.904;2022-09-16T07:06:27;99251.88;;;14.93;100.00
10638;BME280;47007;49.252;8.904;2022-09-16T07:09:15;99236.19;;;14.97;100.00
10638;BME280;47007;49.252;8.904;2022-09-16T07:11:41;99242.28;;;15.04;100.00
10638;BME280;47007;49.252;8.904;2022-09-16T07:14:08;99216.63;;;15.03;100.00
10638;BME280;47007;49.252;8.904;2022-09-16T07:16:35;99227.38;;;15.26;100.00
10638;BME280;47007;49.252;8.904;2022-09-16T07:19:02;99226.81;;;15.36;100.00
10638;BME280;47007;49.252;8.904;2022-09-16T07:21:30;99217.41;;;15.33;100.00
10638;BME280;47007;49.252;8.904;2022-09-16T07:23:59;99242.28;;;15.45;100.00
10638;BME280;47007;49.252;8.904;2022-09-16T07:26:31;99239.59;;;15.45;100.00
10638;BME280;47007;49.252;8.904;2022-09-16T07:29:01;99240.91;;;15.43;100.00
10638;BME280;47007;49.252;8.904;2022-09-16T07:31:31;99242.75;;;15.42;100.00
10638;BME280;47007;49.252;8.904;2022-09-16T07:33:59;99234.75;;;15.42;100.00
10638;BME280;47007;49.252;8.904;2022-09-16T07:36:32;99218.00;;;15.47;100.00
10638;BME280;47007;49.252;8.904;2022-09-16T07:39:00;99247.16;;;15.90;100.00
10638;BME280;47007;49.252;8.904;2022-09-16T07:41:58;99243.91;;;16.11;100.00
10638;BME280;47007;49.252;8.904;2022-09-16T07:44:31;99252.50;;;16.13;100.00
10638;BME280;47007;49.252;8.904;2022-09-16T07:46:58;99250.88;;;16.01;100.00
10638;BME280;47007;49.252;8.904;2022-09-16T07:49:25;99249.69;;;15.97;100.00
10638;BME280;47007;49.252;8.904;2022-09-16T07:51:51;99250.19;;;15.94;100.00
10638;BME280;47007;49.252;8.904;2022-09-16T07:54:18;99251.69;;;16.01;100.00
10638;BME280;47007;49.252;8.904;2022-09-16T07:56:46;99253.09;;;16.15;100.00
10638;BME280;47007;49.252;8.904;2022-09-16T07:59:15;99248.19;;;15.89;100.00
10638;BME280;47007;49.252;8.904;2022-09-16T08:01:45;99240.03;;;15.72;100.00
10638;BME280;47007;49.252;8.904;2022-09-16T08:04:11;99259.91;;;15.76;100.00
10638;BME280;47007;49.252;8.904;2022-09-16T08:06:47;99246.78;;;15.87;100.00
10638;BME280;47007;49.252;8.904;2022-09-16T08:09:14;99221.81;;;15.69;100.00
10638;BME280;47007;49.252;8.904;2022-09-16T08:12:03;99266.53;;;15.74;100.00
10638;BME280;47007;49.252;8.904;2022-09-16T08:14:30;99238.66;;;15.70;100.00
10638;BME280;47007;49.252;8.904;2022-09-16T08:16:56;99263.53;;;15.82;100.00
10638;BME280;47007;49.252;8.904;2022-09-16T08:19:23;99264.69;;;15.86;100.00
10638;BME280;47007;49.252;8.904;2022-09-16T08:21:51;99259.56;;;15.73;100.00
10638;BME280;47007;49.252;8.904;2022-09-16T08:24:18;99258.06;;;15.77;100.00
10638;BME280;47007;49.252;8.904;2022-09-16T08:26:44;99222.31;;;15.48;100.00
10638;BME280;47007;49.252;8.904;2022-09-16T08:29:11;99267.72;;;15.90;100.00
10638;BME280;47007;49.252;8.904;2022-09-16T08:31:38;99262.84;;;16.10;100.00
10638;BME280;47007;49.252;8.904;2022-09-16T08:34:05;99250.88;;;16.12;100.00
10638;BME280;47007;49.252;8.904;2022-09-16T08:36:32;99264.22;;;16.24;100.00
10638;BME280;47007;49.252;8.904;2022-09-16T08:39:24;99266.09;;;16.35;100.00
10638;BME280;47007;49.252;8.904;2022-09-16T08:44:44;99269.59;;;16.12;100.00
10638;BME280;47007;49.252;8.904;2022-09-16T08:49:55;99263.41;;;16.35;100.00
10638;BME280;47007;49.252;8.904;2022-09-16T08:52:27;99256.09;;;16.42;100.00
10638;BME280;47007;49.252;8.904;2022-09-16T08:55:34;99271.56;;;16.17;100.00
10638;BME280;47007;49.252;8.904;2022-09-16T08:58:08;99262.84;;;16.22;100.00
10638;BME280;47007;49.252;8.904;2022-09-16T09:00:36;99256.78;;;16.38;100.00
10638;BME280;47007;49.252;8.904;2022-09-16T09:06:05;99255.63;;;16.10;100.00
10638;BME280;47007;49.252;8.904;2022-09-16T09:08:39;99262.16;;;15.91;100.00
10638;BME280;47007;49.252;8.904;2022-09-16T09:11:43;99260.28;;;15.92;100.00
10638;BME280;47007;49.252;8.904;2022-09-16T09:20:05;99264.13;;;16.42;100.00
10638;BME280;47007;49.252;8.904;2022-09-16T09:23:11;99259.78;;;16.53;100.00
10638;BME280;47007;49.252;8.904;2022-09-16T09:25:40;99267.13;;;16.34;100.00
10638;BME280;47007;49.252;8.904;2022-09-16T09:28:33;99208.69;;;16.14;100.00
10638;BME280;47007;49.252;8.904;2022-09-16T09:31:38;99246.78;;;16.57;100.00
10638;BME280;47007;49.252;8.904;2022-09-16T09:39:52;99251.63;;;16.71;100.00
10638;BME280;47007;49.252;8.904;2022-09-16T09:42:36;99259.66;;;16.60;100.00
10638;BME280;47007;49.252;8.904;2022-09-16T09:45:13;99253.06;;;16.62;100.00
10638;BME280;47007;49.252;8.904;2022-09-16T09:50:32;99238.84;;;16.62;100.00
10638;BME280;47007;49.252;8.904;2022-09-16T09:53:24;99249.19;;;16.58;100.00
10638;BME280;47007;49.252;8.904;2022-09-16T09:55:59;99246.44;;;16.41;100.00
10638;BME280;47007;49.252;8.904;2022-09-16T09:59:21;99246.78;;;16.22;100.00
10638;BME280;47007;49.252;8.904;2022-09-16T10:01:45;99251.91;;;16.11;100.00
10638;BME280;47007;49.252;8.904;2022-09-16T10:04:14;99246.09;;;16.14;100.00
10638;BME280;47007;49.252;8.904;2022-09-16T10:06:42;99250.19;;;16.05;100.00
10638;BME280;47007;49.252;8.904;2022-09-16T10:09:13;99247.25;;;15.84;100.00
10638;BME280;47007;49.252;8.904;2022-09-16T10:11:49;99251.78;;;15.83;100.00
10638;BME280;47007;49.252;8.904;2022-09-16T10:14:32;99247.03;;;15.85;100.00
10638;BME280;47007;49.252;8.904;2022-09-16T10:17:01;99263.19;;;15.90;100.00
10638;BME280;47007;49.252;8.904;2022-09-16T10:19:30;99256.91;;;15.96;100.00
10638;BME280;47007;49.252;8.904;2022-09-16T10:22:30;99250.50;;;16.09;100.00
10638;BME280;47007;49.252;8.904;2022-09-16T10:25:04;99246.94;;;16.03;100.00
10638;BME280;47007;49.252;8.904;2022-09-16T10:27:35;99254.72;;;15.93;100.00
10638;BME280;47007;49.252;8.904;2022-09-16T10:30:13;99257.25;;;16.11;100.00
10638;BME280;47007;49.252;8.904;2022-09-16T10:32:59;99182.56;;;15.93;100.00
10638;BME280;47007;49.252;8.904;2022-09-16T10:35:29;99236.56;;;16.30;100.00
10638;BME280;47007;49.252;8.904;2022-09-16T10:38:03;99232.22;;;16.64;100.00
10638;BME280;47007;49.252;8.904;2022-09-16T10:40:31;99238.84;;;17.02;100.00
10638;BME280;47007;49.252;8.904;2022-09-16T10:43:05;99238.94;;;17.35;100.00
10638;BME280;47007;49.252;8.904;2022-09-16T10:45:34;99224.31;;;17.26;100.00
10638;BME280;47007;49.252;8.904;2022-09-16T10:48:12;99168.38;;;16.56;100.00
10638;BME280;47007;49.252;8.904;2022-09-16T10:51:00;99211.06;;;16.63;100.00
10638;BME280;47007;49.252;8.904;2022-09-16T10:56:00;99227.13;;;16.63;100.00
10638;BME280;47007;49.252;8.904;2022-09-16T10:58:27;99234.63;;;16.77;100.00
10638;BME280;47007;49.252;8.904;2022-09-16T11:09:31;99230.06;;;16.90;100.00
10638;BME280;47007;49.252;8.904;2022-09-16T11:20:43;99226.56;;;17.17;100.00
10638;BME280;47007;49.252;8.904;2022-09-16T11:25:52;99223.78;;;17.12;100.00
10638;BME280;47007;49.252;8.904;2022-09-16T11:28:49;99219.28;;;17.30;100.00
10638;BME280;47007;49.252;8.904;2022-09-16T11:31:50;99228.47;;;17.50;100.00
10638;BME280;47007;49.252;8.904;2022-09-16T11:42:29;99204.97;;;16.79;100.00
10638;BME280;47007;49.252;8.904;2022-09-16T11:56:21;99250.69;;;17.79;90.14
10638;BME280;47007;49.252;8.904;2022-09-16T11:58:58;99234.94;;;17.66;95.77
10638;BME280;47007;49.252;8.904;2022-09-16T12:04:05;99226.97;;;18.87;89.45
10638;BME280;47007;49.252;8.904;2022-09-16T12:06:41;99234.84;;;19.74;75.81
10638;BME280;47007;49.252;8.904;2022-09-16T12:09:49;99232.88;;;20.38;73.92
10638;BME280;47007;49.252;8.904;2022-09-16T12:12:19;99221.03;;;20.39;73.69
10638;BME280;47007;49.252;8.904;2022-09-16T12:14:52;99208.88;;;20.99;70.87
10638;BME280;47007;49.252;8.904;2022-09-16T12:17:25;99183.34;;;20.39;72.69
10638;BME280;47007;49.252;8.904;2022-09-16T12:19:59;99202.28;;;20.60;83.25
10638;BME280;47007;49.252;8.904;2022-09-16T12:22:34;99198.09;;;21.04;92.32
10638;BME280;47007;49.252;8.904;2022-09-16T12:25:19;99185.97;;;21.17;91.04
10638;BME280;47007;49.252;8.904;2022-09-16T12:28:15;99198.28;;;20.72;86.92
10638;BME280;47007;49.252;8.904;2022-09-16T12:30:44;99204.88;;;19.97;89.67
10638;BME280;47007;49.252;8.904;2022-09-16T12:33:17;99191.47;;;20.02;90.17
10638;BME280;47007;49.252;8.904;2022-09-16T12:35:56;99192.75;;;19.58;98.95
10638;BME280;47007;49.252;8.904;2022-09-16T12:38:24;99198.19;;;20.00;84.28
10638;BME280;47007;49.252;8.904;2022-09-16T12:52:57;99192.06;;;20.62;75.17
10638;BME280;47007;49.252;8.904;2022-09-16T13:01:38;99187.38;;;21.65;72.32
10638;BME280;47007;49.252;8.904;2022-09-16T13:04:20;99185.06;;;20.61;78.55
10638;BME280;47007;49.252;8.904;2022-09-16T13:06:50;99179.91;;;20.02;78.21
10638;BME280;47007;49.252;8.904;2022-09-16T13:09:27;99159.03;;;19.77;79.40
10638;BME280;47007;49.252;8.904;2022-09-16T13:11:59;99193.00;;;19.56;79.70
10638;BME280;47007;49.252;8.904;2022-09-16T13:14:50;99110.88;;;18.75;73.66
10638;BME280;47007;49.252;8.904;2022-09-16T13:17:36;99192.72;;;18.72;78.27
10638;BME280;47007;49.252;8.904;2022-09-16T13:20:15;99195.28;;;18.62;82.89
10638;BME280;47007;49.252;8.904;2022-09-16T13:22:47;99181.72;;;18.52;93.14
10638;BME280;47007;49.252;8.904;2022-09-16T13:25:22;99196.44;;;18.27;99.52
10638;BME280;47007;49.252;8.904;2022-09-16T13:27:55;99177.34;;;19.16;94.84
10638;BME280;47007;49.252;8.904;2022-09-16T13:33:01;99177.09;;;20.34;79.29
10638;BME280;47007;49.252;8.904;2022-09-16T13:35:38;99167.25;;;19.60;80.68
10638;BME280;47007;49.252;8.904;2022-09-16T13:40:55;99150.84;;;20.66;73.54
10638;BME280;47007;49.252;8.904;2022-09-16T13:46:12;99159.50;;;20.16;81.70
10638;BME280;47007;49.252;8.904;2022-09-16T13:51:30;99161.88;;;20.02;72.94
10638;BME280;47007;49.252;8.904;2022-09-16T13:54:02;99162.06;;;19.91;77.47
10638;BME280;47007;49.252;8.904;2022-09-16T13:56:46;99162.41;;;19.30;79.50
10638;BME280;47007;49.252;8.904;2022-09-16T14:10:02;99155.88;;;20.37;65.76
10638;BME280;47007;49.252;8.904;2022-09-16T14:12:45;99152.97;;;20.49;70.01
10638;BME280;47007;49.252;8.904;2022-09-16T14:15:15;99161.38;;;20.78;66.50
10638;BME280;47007;49.252;8.904;2022-09-16T14:17:48;99145.72;;;20.50;70.17
10638;BME280;47007;49.252;8.904;2022-09-16T14:20:19;99151.47;;;20.89;68.80
10638;BME280;47007;49.252;8.904;2022-09-16T14:22:47;99142.50;;;20.58;66.13
10638;BME280;47007;49.252;8.904;2022-09-16T14:25:34;99155.53;;;20.24;70.59
10638;BME280;47007;49.252;8.904;2022-09-16T14:28:21;99148.06;;;20.41;72.53
10638;BME280;47007;49.252;8.904;2022-09-16T14:30:56;99153.47;;;20.36;70.17
10638;BME280;47007;49.252;8.904;2022-09-16T14:33:31;99155.94;;;20.00;72.26
10638;BME280;47007;49.252;8.904;2022-09-16T14:36:00;99158.47;;;19.75;72.73
10638;BME280;47007;49.252;8.904;2022-09-16T14:39:01;99157.03;;;20.04;73.32
10638;BME280;47007;49.252;8.904;2022-09-16T14:41:38;99153.63;;;19.72;75.89
10638;BME280;47007;49.252;8.904;2022-09-16T14:49:22;99114.09;;;19.04;78.92
10638;BME280;47007;49.252;8.904;2022-09-16T14:51:53;99123.50;;;18.79;82.71
10638;BME280;47007;49.252;8.904;2022-09-16T14:54:22;99156.03;;;19.10;88.85
10638;BME280;47007;49.252;8.904;2022-09-16T14:57:19;99096.06;;;18.99;90.52
10638;BME280;47007;49.252;8.904;2022-09-16T14:59:50;99165.56;;;18.95;93.23
10638;BME280;47007;49.252;8.904;2022-09-16T15:02:40;99164.19;;;18.66;94.42
10638;BME280;47007;49.252;8.904;2022-09-16T15:05:32;99175.47;;;18.24;95.22
10638;BME280;47007;49.252;8.904;2022-09-16T15:10:40;99162.19;;;17.96;100.00
10638;BME280;47007;49.252;8.904;2022-09-16T15:13:20;99165.94;;;17.95;100.00
10638;BME280;47007;49.252;8.904;2022-09-16T15:15:50;99173.16;;;17.94;99.31
10638;BME280;47007;49.252;8.904;2022-09-16T15:21:00;99146.06;;;17.74;100.00
10638;BME280;47007;49.252;8.904;2022-09-16T15:23:29;99173.88;;;18.07;99.00
10638;BME280;47007;49.252;8.904;2022-09-16T15:26:03;99179.81;;;18.30;97.32
10638;BME280;47007;49.252;8.904;2022-09-16T15:28:31;99179.44;;;18.44;95.83
10638;BME280;47007;49.252;8.904;2022-09-16T15:30:58;99172.22;;;18.22;97.80
10638;BME280;47007;49.252;8.904;2022-09-16T15:36:00;99176.56;;;18.07;100.00
10638;BME280;47007;49.252;8.904;2022-09-16T15:38:27;99184.13;;;17.93;100.00
10638;BME280;47007;49.252;8.904;2022-09-16T15:41:01;99176.41;;;17.97;100.00
10638;BME280;47007;49.252;8.904;2022-09-16T15:43:52;99173.06;;;18.06;100.00
10638;BME280;47007;49.252;8.904;2022-09-16T15:46:22;99177.31;;;18.02;100.00
10638;BME280;47007;49.252;8.904;2022-09-16T15:48:52;99182.38;;;17.82;100.00
10638;BME280;47007;49.252;8.904;2022-09-16T15:51:36;99162.06;;;17.69;100.00
10638;BME280;47007;49.252;8.904;2022-09-16T15:54:20;99193.34;;;17.64;100.00
10638;BME280;47007;49.252;8.904;2022-09-16T15:59:39;99205.09;;;17.46;100.00
10638;BME280;47007;49.252;8.904;2022-09-16T16:05:11;99202.81;;;16.93;100.00
10638;BME280;47007;49.252;8.904;2022-09-16T16:07:42;99202.59;;;16.82;100.00
10638;BME280;47007;49.252;8.904;2022-09-16T16:12:50;99209.41;;;16.62;100.00
10638;BME280;47007;49.252;8.904;2022-09-16T16:15:20;99207.16;;;16.30;100.00
10638;BME280;47007;49.252;8.904;2022-09-16T16:17:47;99200.50;;;16.33;100.00
10638;BME280;47007;49.252;8.904;2022-09-16T16:20:16;99212.59;;;16.35;100.00